Portage, Utah
Current Conditions -  °F | °C
As of 4:51 AM on Monday 20 Oct 2014 (Local Time) from KLGU Reporting Station
Clear Clear  
Wind Chill: 38°   Ceiling: Unl
Heat Index: 38°   Visibility: 10mi
Dew Point: 32°   Wind: 0mph
Humidity: 79%   Direction: NA
Pressure: 30.06"   Gusts: NA
Location:  41.98°N, 112.21°W
Report Text: KLGU 201051Z AUTO 00000KT 10SM CLR 03/00 A3006 RMK AO2 SLP154 T00330000 TSNO
Loading
Personal Weather Stations






























Interactive Weather Map
Tropical Storm Tracking
New forecast layout! Learn more

10-Day Weather Forecast

Advertisements
Track Severe Weather on mobile